Flight Track Log - Related Links

Times and Time Zones

All times are in EDT time to prevent confusion due to time zone crossing. See the UAL4476 flight status page for this flight to view local times or setup timezone preferences in your user account.

Time Position Orientation Groundspeed Altitude Reporting Facility
EDT Latitude Longitude Course Direction KTS MPH feet Rate Location/Type
Fri 09:04:00 AM 41.3919 -81.8839 289° West 184 212 1,600  Level Cleveland Center
Fri 09:05:45 AM 41.4197 -81.9897 289° West 172 198 5,700 2,291 Climbing Cleveland Center
Fri 09:06:45 AM 41.4747 -81.9272 40° Northeast 167 192 7,900 2,050 Climbing Cleveland Center
Fri 09:07:45 AM 41.5214 -81.8644 45° Northeast 216 249 9,800 1,450 Climbing Cleveland Center
Fri 09:08:45 AM 41.5806 -81.7767 48° Northeast 277 319 10,800 1,300 Climbing Cleveland Center
Fri 09:09:45 AM 41.6131 -81.6525 71° East 325 374 12,400 1,600 Climbing Cleveland Center
Fri 09:10:45 AM 41.6456 -81.5250 71° East 346 398 14,000 1,450 Climbing Cleveland Center
Fri 09:11:45 AM 41.6800 -81.3811 72° East 357 411 15,300 1,200 Climbing Cleveland Center
Fri 09:12:45 AM 41.7100 -81.2450 74° East 372 428 16,400 1,100 Climbing Cleveland Center
Fri 09:13:45 AM 41.7419 -81.1092 72° East 385 443 17,500 900 Climbing Cleveland Center
Fri 09:14:45 AM 41.7781 -80.9672 71° East 391 450 18,200 850 Climbing Cleveland Center
Fri 09:15:45 AM 41.8117 -80.8200 73° East 401 461 19,200 1,100 Climbing Cleveland Center
Fri 09:16:45 AM 41.8453 -80.6722 73° East 406 467 20,400 1,100 Climbing Cleveland Center
Fri 09:17:45 AM 41.8786 -80.5219 73° East 411 473 21,400 1,100 Climbing Cleveland Center
Fri 09:18:45 AM 41.9139 -80.3656 73° East 426 490 22,600 850 Climbing Cleveland Center
Fri 09:19:45 AM 41.9469 -80.2286 72° East 426 490 23,100 750 Climbing Cleveland Center
Fri 09:20:45 AM 41.9797 -80.0692 74° East 432 497 24,100 1,000 Climbing Cleveland Center
Fri 09:21:45 AM 42.0206 -79.8956 72° East 437 503 25,100 1,100 Climbing Cleveland Center
Fri 09:22:45 AM 42.0569 -79.7386 73° East 437 503 26,300 1,250 Climbing Cleveland Center
Fri 09:23:45 AM 42.0892 -79.5814 75° East 437 503 27,600 1,300 Climbing Cleveland Center
Fri 09:24:45 AM 42.1231 -79.4297 73° East 431 496 28,900 1,300 Climbing Cleveland Center
Fri 09:25:45 AM 42.1694 -79.2917 66° East 414 476 30,200 1,050 Climbing Cleveland Center
Fri 09:26:45 AM 42.2222 -79.1561 62° Northeast 403 464 31,000 400 Climbing Cleveland Center
Fri 09:27:45 AM 42.2828 -79.0114 60° Northeast 416 479 31,000  Level Cleveland Center
Fri 09:28:45 AM 42.3392 -78.8753 61° Northeast 428 493 31,000  Level Cleveland Center
Fri 09:29:45 AM 42.4056 -78.7217 60° Northeast 453 521 31,000  Level Cleveland Center
Fri 09:30:45 AM 42.4697 -78.5678 60° Northeast 465 535 31,000  Level Cleveland Center
Fri 09:31:45 AM 42.5358 -78.4164 59° Northeast 470 541 31,000 100 Level Cleveland Center
Fri 09:32:45 AM 42.5994 -78.2617 61° Northeast 470 541 31,200 600 Climbing Cleveland Center
Fri 09:33:45 AM 42.6250 -78.0886 79° East 465 535 32,200 1,000 Climbing Cleveland Center
Fri 09:34:45 AM 42.6314 -77.9106 87° East 465 535 33,200 1,000 Climbing Cleveland Center
Fri 09:35:45 AM 42.6414 -77.7156 86° East 465 535 34,200 543 Climbing Cleveland Center
Fri 09:38:04 AM 42.6561 -77.3194 87° East 469 540 35,000 241 Climbing Boston Center
Fri 09:39:04 AM 42.6639 -77.1364 87° East 479 551 35,000  Level Boston Center
Fri 09:40:04 AM 42.6714 -76.9533 87° East 479 551 35,000  Level Boston Center
Fri 09:41:04 AM 42.6764 -76.7672 88° East 484 557 35,000  Level Boston Center
Fri 09:42:04 AM 42.6856 -76.5814 86° East 484 557 35,000  Level Boston Center
Fri 09:43:04 AM 42.6900 -76.4008 88° East 484 557 35,000  Level Boston Center
Fri 09:44:04 AM 42.6961 -76.2175 87° East 478 550 35,000 -50 Level Boston Center
Fri 09:45:04 AM 42.7019 -76.0342 87° East 478 550 34,900  Descending Boston Center
Fri 09:46:04 AM 42.7058 -75.8478 88° East 478 550 35,000 50 Climbing Boston Center
Fri 09:47:04 AM 42.7131 -75.6672 87° East 478 550 35,000  Level Boston Center
Fri 09:48:04 AM 42.7161 -75.4867 89° East 478 550 35,000  Level Boston Center
Fri 09:49:04 AM 42.7233 -75.2861 87° East 483 556 35,000  Level Boston Center
Fri 09:50:04 AM 42.7275 -75.1083 88° East 483 556 35,000  Level Boston Center
Fri 09:51:04 AM 42.7297 -74.9247 89° East 477 549 35,000  Level Boston Center
Fri 09:52:04 AM 42.7333 -74.7439 88° East 477 549 35,000  Level Boston Center
Fri 09:53:04 AM 42.7350 -74.5603 89° East 477 549 35,000  Level Boston Center
Fri 09:54:04 AM 42.7319 -74.3736 91° East 477 549 35,000  Level Boston Center
Fri 09:55:04 AM 42.7183 -74.1950 96° East 482 555 35,000  Level Boston Center
Fri 09:56:04 AM 42.7064 -74.0167 95° East 477 549 35,000  Level Boston Center
Fri 09:57:04 AM 42.6900 -73.8356 97° East 482 555 35,000  Level Boston Center
Fri 09:58:04 AM 42.6833 -73.6800 93° East 474 545 35,000 -250 Level Boston Center
Fri 09:59:04 AM 42.6644 -73.4792 97° East 481 554 34,500 -1,150 Descending Boston Center
Fri 10:00:04 AM 42.6533 -73.3181 95° East 476 548 32,700 -1,950 Descending Boston Center
Fri 10:01:04 AM 42.6358 -73.1175 97° East 486 559 30,600 -2,000 Descending Boston Center
Fri 10:02:04 AM 42.6244 -72.9311 95° East 486 559 28,700 -1,950 Descending Boston Center
Fri 10:03:04 AM 42.6083 -72.7475 97° East 491 565 26,700 -2,100 Descending Boston Center
Fri 10:04:04 AM 42.5919 -72.5642 97° East 491 565 24,500 -2,550 Descending Boston Center
Fri 10:05:04 AM 42.5756 -72.3950 97° East 471 542 21,600 -2,650 Descending Boston Center
Fri 10:06:04 AM 42.5608 -72.2456 98° East 458 527 19,200 -2,100 Descending Boston Center
Fri 10:07:04 AM 42.5456 -72.0681 97° East 442 509 17,400 -2,050 Descending Boston Center
Fri 10:08:04 AM 42.5325 -71.9217 97° East 437 503 15,100 -2,500 Descending Boston Center
Fri 10:09:04 AM 42.5192 -71.7583 96° East 413 475 12,400 -1,950 Descending Boston Center
Fri 10:10:04 AM 42.5081 -71.6347 97° East 383 441 11,200 -1,241 Descending Boston Center
Fri 10:10:31 AM 42.5000 -71.5500 97° East 366 421 10,600 -1,226 Descending KA90
Fri 10:11:37 AM 42.5000 -71.4333 90° East 293 337 9,300 -1,438 Descending KA90
Fri 10:12:32 AM 42.4833 -71.3333 103° East 279 321 7,700 -1,789 Descending KA90
Fri 10:13:31 AM 42.4500 -71.2500 118° Southeast 262 302 5,900 -1,350 Descending KA90
Fri 10:14:32 AM 42.4167 -71.1833 124° Southeast 235 270 5,000 -1,240 Descending KA90
Fri 10:15:32 AM 42.3500 -71.1667 170° South 212 244 3,400 -1,304 Descending KA90
Fri 10:16:04 AM 42.3222 -71.1539 161° South 219 252 3,000 -652 Descending Boston Center
Fri 10:17:04 AM 42.2906 -71.1267 148° Southeast 181 208 2,400 -818 Descending Boston Center
Fri 10:17:32 AM 42.2833 -71.1000 110° East 149 171 1,800 -750 Descending KA90
Fri 10:18:32 AM 42.3000 -71.0500 66° East 134 154 1,300 -619 Descending KA90
Fri 10:19:38 AM 42.3333 -71.0167 36° Northeast 134 154 500 -727 Descending KA90

Login

Don't have an account? Register now (free) for customized features, flight alerts, and more!